createdAt,value
2018-10-01T00:01:57.291Z,7.50
2018-10-01T00:04:25.106Z,7.60
2018-10-01T00:06:52.989Z,7.70
2018-10-01T00:09:20.813Z,7.80
2018-10-01T00:11:48.598Z,7.90
2018-10-01T00:14:16.331Z,7.90
2018-10-01T00:16:44.172Z,7.80
2018-10-01T00:19:17.347Z,7.70
2018-10-01T00:21:50.460Z,7.70
2018-10-01T00:24:18.144Z,7.60
2018-10-01T00:26:45.879Z,7.50
2018-10-01T00:29:14.186Z,7.40
2018-10-01T00:31:42.379Z,7.50
2018-10-01T00:34:10.588Z,7.40
2018-10-01T00:36:38.963Z,7.40
2018-10-01T00:39:07.606Z,7.40
2018-10-01T00:41:35.435Z,7.40
2018-10-01T00:50:07.228Z,7.30
2018-10-01T00:52:35.264Z,7.20
2018-10-01T00:55:03.173Z,7.10
2018-10-01T00:57:30.948Z,7.00
2018-10-01T00:59:58.933Z,7.00
2018-10-01T01:02:26.891Z,7.00
2018-10-01T01:07:29.146Z,7.10
2018-10-01T01:09:57.087Z,7.10
2018-10-01T01:12:25.027Z,7.20
2018-10-01T01:14:52.799Z,7.30
2018-10-01T01:17:20.703Z,7.40
2018-10-01T01:19:48.802Z,7.40
2018-10-01T01:22:16.563Z,7.50
2018-10-01T01:24:44.371Z,7.50
2018-10-01T01:27:12.137Z,7.60
2018-10-01T01:29:40.007Z,7.70
2018-10-01T01:32:07.983Z,7.70
2018-10-01T01:34:35.914Z,7.80
2018-10-01T01:37:03.694Z,7.90
2018-10-01T01:39:31.541Z,7.90
2018-10-01T01:41:59.430Z,7.90
2018-10-01T01:44:27.187Z,7.90
2018-10-01T01:46:55.088Z,7.90
2018-10-01T01:49:23.046Z,8.00
2018-10-01T01:51:50.794Z,8.00
2018-10-01T01:54:18.567Z,8.00
2018-10-01T01:56:46.396Z,7.80
2018-10-01T01:59:14.112Z,7.80
2018-10-01T02:01:41.930Z,7.80
2018-10-01T02:04:09.657Z,7.80
2018-10-01T02:06:37.467Z,7.80
2018-10-01T02:09:06.672Z,7.80
2018-10-01T02:11:34.417Z,7.80
2018-10-01T02:14:02.167Z,7.90
2018-10-01T02:16:29.918Z,8.00
2018-10-01T02:18:57.862Z,7.90
2018-10-01T02:21:25.713Z,7.90
2018-10-01T02:23:53.521Z,7.90
2018-10-01T02:26:21.298Z,7.80
2018-10-01T02:28:49.156Z,7.80
2018-10-01T02:31:16.907Z,7.90
2018-10-01T02:33:44.951Z,7.90
2018-10-01T02:36:12.752Z,8.00
2018-10-01T02:38:40.701Z,7.90
2018-10-01T02:41:08.897Z,7.90
2018-10-01T02:43:36.968Z,7.70
2018-10-01T02:46:04.948Z,7.60
2018-10-01T02:48:32.884Z,7.40
2018-10-01T02:51:01.186Z,7.40
2018-10-01T02:53:34.463Z,7.30
2018-10-01T02:56:02.303Z,7.30
2018-10-01T02:58:30.084Z,7.40
2018-10-01T03:00:57.841Z,7.50
2018-10-01T03:03:25.559Z,7.60
2018-10-01T03:05:53.447Z,7.70
2018-10-01T03:08:21.486Z,7.70
2018-10-01T03:10:49.443Z,7.70
2018-10-01T03:13:17.181Z,7.60
2018-10-01T03:15:45.080Z,7.50
2018-10-01T03:18:13.023Z,7.50
2018-10-01T03:20:40.847Z,7.60
2018-10-01T03:23:08.844Z,7.60
2018-10-01T03:25:36.656Z,7.50
2018-10-01T03:28:04.474Z,7.50
2018-10-01T03:30:32.337Z,7.40
2018-10-01T03:33:00.090Z,7.40
2018-10-01T03:35:27.928Z,7.50
2018-10-01T03:37:55.663Z,7.50
2018-10-01T03:40:23.499Z,7.60
2018-10-01T03:42:51.323Z,7.60
2018-10-01T03:45:19.062Z,7.60
2018-10-01T03:47:46.831Z,7.60
2018-10-01T03:50:14.765Z,7.50
2018-10-01T03:52:42.731Z,7.40
2018-10-01T03:55:10.557Z,7.40
2018-10-01T03:57:38.385Z,7.40
2018-10-01T04:00:06.168Z,7.30
2018-10-01T04:02:33.927Z,7.30
2018-10-01T04:05:01.703Z,7.30
2018-10-01T04:07:29.553Z,7.20
2018-10-01T04:09:57.430Z,7.30
2018-10-01T04:12:25.166Z,7.30
2018-10-01T04:14:52.930Z,7.30
2018-10-01T04:17:20.818Z,7.30
2018-10-01T04:19:48.636Z,7.20
2018-10-01T04:22:16.426Z,7.10
2018-10-01T04:24:44.181Z,7.10
2018-10-01T04:27:11.994Z,7.10
2018-10-01T04:29:39.799Z,7.10
2018-10-01T04:32:07.700Z,7.10
2018-10-01T04:34:35.450Z,7.00
2018-10-01T04:37:03.415Z,7.00
2018-10-01T04:39:31.202Z,6.90
2018-10-01T04:41:58.974Z,6.90
2018-10-01T04:44:26.715Z,6.90
2018-10-01T04:46:54.638Z,6.90
2018-10-01T04:49:22.359Z,6.90
2018-10-01T04:51:50.322Z,6.90
2018-10-01T04:54:18.090Z,6.90
2018-10-01T04:56:46.228Z,6.90
2018-10-01T04:59:14.122Z,6.90
2018-10-01T05:01:41.859Z,6.90
2018-10-01T05:04:09.806Z,6.90
2018-10-01T05:06:37.825Z,6.90
2018-10-01T05:09:07.055Z,6.90
2018-10-01T05:11:34.985Z,6.80
2018-10-01T05:14:03.739Z,6.80
2018-10-01T05:16:34.619Z,6.80
2018-10-01T05:19:04.499Z,6.80
2018-10-01T05:27:02.661Z,6.80
2018-10-01T05:33:23.124Z,6.70
2018-10-01T05:39:33.483Z,6.70
2018-10-01T05:48:21.991Z,6.90
2018-10-01T05:50:49.957Z,6.90
2018-10-01T05:53:17.717Z,6.90
2018-10-01T05:55:45.488Z,7.00
2018-10-01T05:58:13.392Z,7.00
2018-10-01T06:00:41.341Z,7.10
2018-10-01T06:03:09.112Z,7.10
2018-10-01T06:05:36.927Z,7.10
2018-10-01T06:08:04.755Z,7.20
2018-10-01T06:10:32.692Z,7.20
2018-10-01T06:13:00.682Z,7.30
2018-10-01T06:15:28.369Z,7.30
2018-10-01T06:17:56.131Z,7.30
2018-10-01T06:20:23.919Z,7.30
2018-10-01T06:22:51.743Z,7.30
2018-10-01T06:25:19.751Z,7.40
2018-10-01T06:27:47.464Z,7.40
2018-10-01T06:30:15.435Z,7.30
2018-10-01T06:32:43.282Z,7.40
2018-10-01T06:35:11.056Z,7.50
2018-10-01T06:37:39.043Z,7.50
2018-10-01T06:40:06.848Z,7.60
2018-10-01T06:42:34.819Z,7.60
2018-10-01T06:45:02.667Z,7.70
2018-10-01T06:47:30.616Z,7.80
2018-10-01T06:49:58.459Z,7.80
2018-10-01T06:52:27.022Z,7.90
2018-10-01T06:54:54.773Z,7.90
2018-10-01T06:57:22.502Z,8.10
2018-10-01T06:59:50.341Z,8.10
2018-10-01T07:02:18.286Z,8.30
2018-10-01T07:04:46.227Z,8.40
2018-10-01T07:07:13.981Z,8.50
2018-10-01T07:09:41.795Z,8.50
2018-10-01T07:12:09.644Z,8.60
2018-10-01T07:14:37.500Z,8.70
2018-10-01T07:17:05.457Z,8.70
2018-10-01T07:19:33.585Z,8.80
2018-10-01T07:22:01.415Z,8.80
2018-10-01T07:24:29.386Z,8.80
2018-10-01T07:26:57.293Z,8.80
2018-10-01T07:29:25.262Z,9.00
2018-10-01T07:31:53.223Z,9.20
2018-10-01T07:34:21.087Z,9.30
2018-10-01T07:36:48.929Z,9.40
2018-10-01T07:39:16.954Z,9.50
2018-10-01T07:41:44.687Z,9.40
2018-10-01T07:44:12.655Z,9.60
2018-10-01T07:46:40.403Z,9.60
2018-10-01T07:49:08.207Z,9.70
2018-10-01T07:51:36.180Z,10.00
2018-10-01T07:54:04.223Z,10.20
2018-10-01T07:56:31.969Z,10.40
2018-10-01T07:58:59.871Z,10.30
2018-10-01T08:01:27.678Z,10.30
2018-10-01T08:03:55.787Z,10.30
2018-10-01T08:06:23.782Z,10.20
2018-10-01T08:08:51.599Z,10.10
2018-10-01T08:11:19.670Z,10.10
2018-10-01T08:13:47.617Z,10.20
2018-10-01T08:16:15.424Z,10.20
2018-10-01T08:18:49.918Z,10.20
2018-10-01T08:21:17.707Z,10.20
2018-10-01T08:23:45.472Z,10.40
2018-10-01T08:26:13.575Z,10.50
2018-10-01T08:28:41.565Z,10.70
2018-10-01T08:31:09.384Z,10.60
2018-10-01T08:33:37.268Z,10.70
2018-10-01T08:36:05.120Z,10.80
2018-10-01T08:38:33.012Z,10.80
2018-10-01T08:41:00.839Z,10.90
2018-10-01T08:43:28.711Z,10.90
2018-10-01T08:45:56.658Z,11.00
2018-10-01T08:48:25.785Z,11.10
2018-10-01T08:51:02.992Z,11.00
2018-10-01T08:53:38.289Z,11.10
2018-10-01T08:56:06.184Z,11.20
2018-10-01T08:58:34.069Z,11.20
2018-10-01T09:01:01.838Z,11.20
2018-10-01T09:03:29.647Z,11.20
2018-10-01T09:05:57.391Z,11.40
2018-10-01T09:08:25.496Z,11.20
2018-10-01T09:10:53.499Z,11.30
2018-10-01T09:13:21.435Z,11.30
2018-10-01T09:15:49.547Z,11.40
2018-10-01T09:18:17.481Z,11.50
2018-10-01T09:20:45.353Z,11.50
2018-10-01T09:23:13.297Z,11.80
2018-10-01T09:25:40.978Z,11.90
2018-10-01T09:28:08.912Z,12.00
2018-10-01T09:30:36.670Z,12.00
2018-10-01T09:33:04.603Z,11.90
2018-10-01T09:35:32.456Z,12.00
2018-10-01T09:38:00.200Z,11.80
2018-10-01T09:40:28.228Z,12.00
2018-10-01T09:42:56.047Z,12.10
2018-10-01T09:45:23.892Z,12.20
2018-10-01T09:47:51.812Z,12.40
2018-10-01T09:50:19.574Z,12.60
2018-10-01T09:52:47.323Z,12.60
2018-10-01T09:55:15.117Z,12.80
2018-10-01T09:57:43.344Z,12.50
2018-10-01T10:00:11.490Z,12.20
2018-10-01T10:02:39.432Z,12.20
2018-10-01T10:05:07.473Z,12.30
2018-10-01T10:07:35.240Z,12.30
2018-10-01T10:10:03.193Z,12.40
2018-10-01T10:12:31.232Z,12.30
2018-10-01T10:14:59.110Z,12.40
2018-10-01T10:17:26.940Z,12.50
2018-10-01T10:19:54.841Z,12.70
2018-10-01T10:22:22.795Z,12.90
2018-10-01T10:24:50.487Z,13.10
2018-10-01T10:27:18.427Z,12.70
2018-10-01T10:29:46.407Z,12.50
2018-10-01T10:32:14.270Z,12.70
2018-10-01T10:34:42.087Z,12.80
2018-10-01T10:37:09.888Z,12.80
2018-10-01T10:39:37.869Z,12.70
2018-10-01T10:42:05.643Z,12.60
2018-10-01T10:44:33.567Z,12.50
2018-10-01T10:47:01.600Z,12.40
2018-10-01T10:49:29.453Z,12.20
2018-10-01T10:51:57.370Z,12.20
2018-10-01T10:54:25.175Z,12.30
2018-10-01T10:56:53.068Z,12.30
2018-10-01T10:59:21.013Z,12.40
2018-10-01T11:01:48.860Z,12.50
2018-10-01T11:04:16.639Z,12.40
2018-10-01T11:06:44.816Z,12.60
2018-10-01T11:09:12.682Z,12.60
2018-10-01T11:11:40.485Z,12.60
2018-10-01T11:14:08.839Z,12.60
2018-10-01T11:16:36.483Z,12.60
2018-10-01T11:19:04.549Z,12.60
2018-10-01T11:21:32.597Z,12.70
2018-10-01T11:24:00.633Z,12.60
2018-10-01T11:26:28.923Z,12.60
2018-10-01T11:28:56.822Z,12.70
2018-10-01T11:31:24.600Z,13.00
2018-10-01T11:33:52.452Z,13.30
2018-10-01T11:36:20.392Z,13.40
2018-10-01T11:38:48.185Z,13.40
2018-10-01T11:41:16.386Z,13.20
2018-10-01T11:43:44.219Z,12.90
2018-10-01T11:46:12.014Z,12.80
2018-10-01T11:48:39.888Z,12.40
2018-10-01T11:51:07.855Z,12.10
2018-10-01T11:53:35.664Z,12.10
2018-10-01T11:56:03.525Z,11.90
2018-10-01T11:58:31.647Z,12.00
2018-10-01T12:00:59.757Z,12.00
2018-10-01T12:03:27.689Z,11.90
2018-10-01T12:05:55.543Z,11.90
2018-10-01T12:08:23.524Z,11.90
2018-10-01T12:10:51.308Z,11.80
2018-10-01T12:13:19.291Z,11.80
2018-10-01T12:15:47.280Z,12.10
2018-10-01T12:18:14.912Z,12.30
2018-10-01T12:20:42.851Z,12.20
2018-10-01T12:23:10.861Z,12.20
2018-10-01T12:25:38.633Z,12.30
2018-10-01T12:28:06.600Z,12.20
2018-10-01T12:30:34.437Z,12.10
2018-10-01T12:33:02.340Z,11.90
2018-10-01T12:35:30.325Z,11.90
2018-10-01T12:37:58.216Z,11.70
2018-10-01T12:40:26.080Z,11.60
2018-10-01T12:42:54.122Z,11.40
2018-10-01T12:45:22.214Z,11.10
2018-10-01T12:47:50.100Z,11.00
2018-10-01T12:50:17.977Z,11.00
2018-10-01T12:52:46.038Z,11.10
2018-10-01T12:55:13.922Z,11.30
2018-10-01T12:57:41.795Z,11.40
2018-10-01T13:00:09.713Z,11.40
2018-10-01T13:02:37.708Z,11.40
2018-10-01T13:05:05.903Z,11.60
2018-10-01T13:07:33.702Z,11.60
2018-10-01T13:10:01.722Z,11.40
2018-10-01T13:12:29.971Z,11.20
2018-10-01T13:14:58.068Z,10.70
2018-10-01T13:17:26.030Z,10.00
2018-10-01T13:19:53.887Z,9.30
2018-10-01T13:22:21.904Z,9.10
2018-10-01T13:24:49.884Z,9.00
2018-10-01T13:27:17.746Z,9.00
2018-10-01T13:29:45.666Z,9.00
2018-10-01T13:32:13.676Z,9.10
2018-10-01T13:34:41.584Z,9.20
2018-10-01T13:37:09.422Z,9.20
2018-10-01T13:39:37.523Z,9.40
2018-10-01T13:42:05.392Z,9.60
2018-10-01T13:44:33.369Z,9.80
2018-10-01T13:47:01.196Z,10.00
2018-10-01T13:49:29.847Z,10.10
2018-10-01T13:51:57.710Z,10.20
2018-10-01T13:54:25.904Z,10.30
2018-10-01T13:56:53.723Z,10.50
2018-10-01T13:59:21.652Z,10.40
2018-10-01T14:01:49.592Z,10.50
2018-10-01T14:04:17.437Z,10.50
2018-10-01T14:06:45.315Z,10.30
2018-10-01T14:09:13.194Z,10.30
2018-10-01T14:11:41.042Z,10.40
2018-10-01T14:14:10.245Z,10.50
2018-10-01T14:16:38.290Z,10.40
2018-10-01T14:19:06.298Z,9.90
2018-10-01T14:21:34.163Z,8.90
2018-10-01T14:24:02.259Z,8.40
2018-10-01T14:26:30.246Z,8.20
2018-10-01T14:28:58.073Z,8.10
2018-10-01T14:31:25.921Z,8.20
2018-10-01T14:33:53.827Z,8.40
2018-10-01T14:36:22.009Z,8.50
2018-10-01T14:38:49.775Z,8.70
2018-10-01T14:41:17.635Z,8.90
2018-10-01T14:43:45.602Z,9.20
2018-10-01T14:46:13.726Z,9.40
2018-10-01T14:48:41.553Z,9.60
2018-10-01T14:51:09.952Z,9.70
2018-10-01T14:53:37.801Z,9.90
2018-10-01T14:56:06.087Z,9.90
2018-10-01T14:58:33.939Z,9.90
2018-10-01T15:01:02.102Z,9.90
2018-10-01T15:03:30.153Z,9.80
2018-10-01T15:05:58.099Z,9.70
2018-10-01T15:08:25.947Z,9.70
2018-10-01T15:10:53.963Z,9.70
2018-10-01T15:13:21.823Z,9.80
2018-10-01T15:15:49.648Z,9.90
2018-10-01T15:18:17.660Z,9.90
2018-10-01T15:20:45.543Z,10.00
2018-10-01T15:23:13.854Z,10.00
2018-10-01T15:25:41.635Z,10.00
2018-10-01T15:28:09.896Z,9.90
2018-10-01T15:30:37.967Z,9.80
2018-10-01T15:33:06.148Z,9.60
2018-10-01T15:35:34.079Z,9.50
2018-10-01T15:38:02.196Z,9.30
2018-10-01T15:40:30.198Z,9.20
2018-10-01T15:42:58.414Z,9.20
2018-10-01T15:45:26.340Z,9.20
2018-10-01T15:47:54.116Z,9.10
2018-10-01T15:50:22.048Z,9.00
2018-10-01T15:52:50.280Z,9.00
2018-10-01T15:55:18.118Z,9.00
2018-10-01T15:57:46.037Z,9.00
2018-10-01T16:00:14.009Z,9.10
2018-10-01T16:02:41.975Z,9.10
2018-10-01T16:05:09.867Z,9.10
2018-10-01T16:07:37.910Z,9.10
2018-10-01T16:10:06.101Z,8.90
2018-10-01T16:12:34.119Z,8.80
2018-10-01T16:15:02.739Z,8.70
2018-10-01T16:17:30.839Z,8.70
2018-10-01T16:19:58.932Z,8.90
2018-10-01T16:22:27.068Z,8.90
2018-10-01T16:24:55.179Z,9.00
2018-10-01T16:27:23.501Z,9.00
2018-10-01T16:29:51.498Z,9.00
2018-10-01T16:32:19.387Z,9.00
2018-10-01T16:34:47.223Z,8.80
2018-10-01T16:37:15.483Z,8.60
2018-10-01T16:39:43.369Z,8.50
2018-10-01T16:42:11.199Z,8.40
2018-10-01T16:44:39.160Z,8.40
2018-10-01T16:47:07.234Z,8.40
2018-10-01T16:49:35.361Z,8.40
2018-10-01T16:52:03.558Z,8.30
2018-10-01T16:54:31.615Z,8.30
2018-10-01T16:56:59.993Z,8.40
2018-10-01T16:59:27.954Z,8.40
2018-10-01T17:01:55.815Z,8.40
2018-10-01T17:04:23.861Z,8.40
2018-10-01T17:06:52.016Z,8.40
2018-10-01T17:09:19.951Z,8.30
2018-10-01T17:11:47.744Z,8.20
2018-10-01T17:14:15.918Z,8.10
2018-10-01T17:16:43.869Z,8.10
2018-10-01T17:19:11.873Z,8.20
2018-10-01T17:21:39.903Z,8.30
2018-10-01T17:24:08.242Z,8.30
2018-10-01T17:26:36.141Z,8.30
2018-10-01T17:29:04.025Z,8.40
2018-10-01T17:31:32.046Z,8.40
2018-10-01T17:34:00.183Z,8.40
2018-10-01T17:36:28.111Z,8.30
2018-10-01T17:38:56.334Z,8.20
2018-10-01T17:41:24.575Z,8.20
2018-10-01T17:43:52.484Z,8.10
2018-10-01T17:46:20.323Z,8.10
2018-10-01T17:48:48.317Z,8.10
2018-10-01T17:51:16.278Z,8.20
2018-10-01T17:53:44.257Z,8.20
2018-10-01T17:56:12.484Z,8.20
2018-10-01T17:58:40.675Z,8.20
2018-10-01T18:01:08.554Z,8.30
2018-10-01T18:03:36.663Z,8.20
2018-10-01T18:06:04.798Z,8.10
2018-10-01T18:08:32.967Z,8.10
2018-10-01T18:11:01.435Z,8.10
2018-10-01T18:13:29.549Z,8.10
2018-10-01T18:15:57.732Z,8.10
2018-10-01T18:18:25.778Z,8.00
2018-10-01T18:20:53.742Z,8.00
2018-10-01T18:23:22.026Z,8.00
2018-10-01T18:25:50.294Z,8.00
2018-10-01T18:28:18.354Z,8.00
2018-10-01T18:30:46.359Z,7.90
2018-10-01T18:33:14.426Z,7.90
2018-10-01T18:35:42.578Z,7.90
2018-10-01T18:38:10.611Z,7.90
2018-10-01T18:40:39.106Z,7.90
2018-10-01T18:43:07.292Z,7.90
2018-10-01T18:45:35.450Z,7.90
2018-10-01T18:48:03.589Z,7.90
2018-10-01T18:50:31.979Z,7.80
2018-10-01T18:52:59.908Z,7.80
2018-10-01T18:55:27.894Z,7.80
2018-10-01T18:57:55.731Z,7.80
2018-10-01T19:00:23.679Z,7.80
2018-10-01T19:02:51.522Z,7.80
2018-10-01T19:05:19.741Z,7.90
2018-10-01T19:07:48.148Z,7.80
2018-10-01T19:10:16.653Z,7.80
2018-10-01T19:12:45.165Z,7.80
2018-10-01T19:15:13.325Z,7.70
2018-10-01T19:17:41.425Z,7.70
2018-10-01T19:20:09.801Z,7.80
2018-10-01T19:22:37.981Z,7.70
2018-10-01T19:25:06.137Z,7.70
2018-10-01T19:27:34.128Z,7.80
2018-10-01T19:30:02.218Z,7.70
2018-10-01T19:32:30.303Z,7.70
2018-10-01T19:34:58.306Z,7.60
2018-10-01T19:37:26.436Z,7.60
2018-10-01T19:39:54.450Z,7.50
2018-10-01T19:42:22.473Z,7.50
2018-10-01T19:44:50.683Z,7.50
2018-10-01T19:47:18.540Z,7.50
2018-10-01T19:49:46.356Z,7.40
2018-10-01T19:52:14.235Z,7.40
2018-10-01T19:54:42.293Z,7.40
2018-10-01T19:57:10.456Z,7.50
2018-10-01T19:59:38.565Z,7.50
2018-10-01T20:02:06.950Z,7.60
2018-10-01T20:04:34.997Z,7.60
2018-10-01T20:07:03.127Z,7.60
2018-10-01T20:09:31.223Z,7.60
2018-10-01T20:11:59.510Z,7.50
2018-10-01T20:14:27.665Z,7.50
2018-10-01T20:16:55.792Z,7.50
2018-10-01T20:19:23.605Z,7.40
2018-10-01T20:21:51.893Z,7.40
2018-10-01T20:24:20.038Z,7.40
2018-10-01T20:26:48.270Z,7.40
2018-10-01T20:29:16.203Z,7.50
2018-10-01T20:31:43.916Z,7.40
2018-10-01T20:34:11.827Z,7.30
2018-10-01T20:36:39.953Z,7.30
2018-10-01T20:39:08.152Z,7.30
2018-10-01T20:41:36.108Z,7.30
2018-10-01T20:44:04.066Z,7.30
2018-10-01T20:46:31.908Z,7.20
2018-10-01T20:48:59.783Z,7.20
2018-10-01T20:51:27.864Z,7.20
2018-10-01T20:53:55.808Z,7.20
2018-10-01T20:56:23.715Z,7.10
2018-10-01T20:58:51.947Z,7.10
2018-10-01T21:01:19.871Z,7.10
2018-10-01T21:03:47.772Z,7.00
2018-10-01T21:06:15.499Z,7.00
2018-10-01T21:08:43.324Z,7.10
2018-10-01T21:11:11.152Z,7.10
2018-10-01T21:13:38.975Z,7.10
2018-10-01T21:16:07.153Z,7.10
2018-10-01T21:18:34.963Z,7.10
2018-10-01T21:21:03.451Z,7.10
2018-10-01T21:23:31.465Z,7.10
2018-10-01T21:25:59.186Z,7.10
2018-10-01T21:28:27.022Z,7.10
2018-10-01T21:30:55.012Z,7.00
2018-10-01T21:33:23.101Z,6.90
2018-10-01T21:35:50.946Z,6.90
2018-10-01T21:38:19.167Z,6.90
2018-10-01T21:40:47.138Z,6.90
2018-10-01T21:43:15.434Z,6.80
2018-10-01T21:45:43.353Z,6.70
2018-10-01T21:48:11.399Z,6.70
2018-10-01T21:50:39.306Z,6.60
2018-10-01T21:53:07.093Z,6.60
2018-10-01T21:55:34.872Z,6.50
2018-10-01T21:58:02.724Z,6.50
2018-10-01T22:00:36.179Z,6.40
2018-10-01T22:03:03.979Z,6.40
2018-10-01T22:05:31.975Z,6.30
2018-10-01T22:07:59.758Z,6.30
2018-10-01T22:10:27.619Z,6.20
2018-10-01T22:12:55.470Z,6.10
2018-10-01T22:15:23.557Z,6.10
2018-10-01T22:17:51.468Z,6.00
2018-10-01T22:20:19.281Z,6.00
2018-10-01T22:22:47.097Z,6.00
2018-10-01T22:25:14.999Z,6.00
2018-10-01T22:27:42.802Z,6.00
2018-10-01T22:30:10.501Z,5.90
2018-10-01T22:32:38.335Z,5.80
2018-10-01T22:35:06.195Z,5.80
2018-10-01T22:37:34.207Z,5.70
2018-10-01T22:40:02.109Z,5.70
2018-10-01T22:42:30.065Z,5.70
2018-10-01T22:44:57.904Z,5.70
2018-10-01T22:47:25.681Z,5.60
2018-10-01T22:49:53.469Z,5.60
2018-10-01T22:52:21.225Z,5.50
2018-10-01T22:54:49.006Z,5.50
2018-10-01T22:57:16.939Z,5.50
2018-10-01T22:59:44.830Z,5.50
2018-10-01T23:02:12.886Z,5.50
2018-10-01T23:04:40.870Z,5.50
2018-10-01T23:07:08.711Z,5.50
2018-10-01T23:09:36.482Z,5.40
2018-10-01T23:12:04.312Z,5.40
2018-10-01T23:14:32.062Z,5.40
2018-10-01T23:17:00.064Z,5.40
2018-10-01T23:19:28.036Z,5.40
2018-10-01T23:21:55.949Z,5.30
2018-10-01T23:24:30.282Z,5.30
2018-10-01T23:26:58.098Z,5.40
2018-10-01T23:29:25.907Z,5.40
2018-10-01T23:31:53.718Z,5.40
2018-10-01T23:34:21.644Z,5.50
2018-10-01T23:36:49.384Z,5.50
2018-10-01T23:39:17.283Z,5.40
2018-10-01T23:41:44.989Z,5.40
2018-10-01T23:44:12.875Z,5.40
2018-10-01T23:46:40.726Z,5.40
2018-10-01T23:49:08.460Z,5.50
2018-10-01T23:51:36.269Z,5.60
2018-10-01T23:54:04.241Z,5.60
2018-10-01T23:56:32.088Z,5.70
2018-10-01T23:58:59.866Z,5.60
